Time;durP1;ratioP1;P1;durP2;ratioP2;P2;SDS_P1;SDS_P2;PMS_P1;PMS_P2;Temp;Humidity;BMP_temperature;BMP_pressure;BME280_temperature;BME280_humidity;BME280_pressure;Samples;Min_cycle;Max_cycle;Signal;HPM_P1;HPM_P2
2022/10/18 00:01:10;;;;;;;7.90;3.47;;;16.50;99.90;;;;;;4976127;28;20646;-72
2022/10/18 00:03:36;;;;;;;5.37;3.50;;;16.50;99.90;;;;;;4991769;28;20180;-71
2022/10/18 00:06:03;;;;;;;6.40;4.50;;;16.50;99.90;;;;;;4990469;28;20169;-72
2022/10/18 00:08:29;;;;;;;5.70;4.33;;;16.50;99.90;;;;;;4992139;28;20436;-73
2022/10/18 00:10:55;;;;;;;4.47;3.10;;;16.50;99.90;;;;;;4992778;28;20407;-73
2022/10/18 00:13:21;;;;;;;7.53;5.10;;;16.50;99.90;;;;;;4988344;28;20201;-73
2022/10/18 00:15:52;;;;;;;6.13;4.27;;;16.50;99.90;;;;;;4976264;28;20665;-73
2022/10/18 00:18:18;;;;;;;9.30;4.10;;;16.50;99.90;;;;;;5007800;28;20477;-73
2022/10/18 00:20:44;;;;;;;6.13;4.03;;;16.50;99.90;;;;;;4976538;28;20405;-73
2022/10/18 00:23:09;;;;;;;5.40;4.47;;;16.40;99.90;;;;;;4976504;28;20413;-73
2022/10/18 00:25:35;;;;;;;8.93;3.80;;;16.40;99.90;;;;;;4983632;28;20187;-73
2022/10/18 00:28:00;;;;;;;5.20;3.40;;;16.40;99.90;;;;;;4995608;28;20199;-72
2022/10/18 00:30:26;;;;;;;8.23;4.80;;;16.40;99.90;;;;;;4995415;28;20173;-73
2022/10/18 00:32:51;;;;;;;5.83;4.57;;;16.40;99.90;;;;;;4995307;28;20235;-73
2022/10/18 00:35:17;;;;;;;4.53;4.07;;;16.40;99.90;;;;;;4993787;28;20177;-73
2022/10/18 00:37:42;;;;;;;7.30;4.60;;;16.50;99.90;;;;;;4986206;28;20600;-72
2022/10/18 00:40:09;;;;;;;5.40;3.87;;;16.50;99.90;;;;;;4975810;28;20244;-73
2022/10/18 00:42:35;;;;;;;7.10;4.97;;;16.50;99.90;;;;;;4975847;28;20170;-73
2022/10/18 00:45:01;;;;;;;9.03;4.70;;;16.50;99.90;;;;;;4975420;28;20409;-72
2022/10/18 00:47:26;;;;;;;6.10;5.13;;;16.60;99.90;;;;;;4975543;28;20517;-73
2022/10/18 00:49:56;;;;;;;9.83;4.97;;;16.60;99.90;;;;;;4984013;28;20214;-73
2022/10/18 00:52:36;;;;;;;9.87;5.10;;;16.60;99.90;;;;;;4993725;28;20201;-73
2022/10/18 00:55:04;;;;;;;6.00;5.00;;;16.60;99.90;;;;;;4994726;28;20404;-72
2022/10/18 00:57:31;;;;;;;8.73;5.40;;;16.60;99.90;;;;;;4994913;28;20424;-72
2022/10/18 00:59:56;;;;;;;9.40;5.67;;;16.70;99.90;;;;;;4993674;28;20408;-72
2022/10/18 01:02:23;;;;;;;7.07;5.83;;;16.70;99.90;;;;;;4982935;28;20785;-73
2022/10/18 01:04:48;;;;;;;10.43;5.87;;;16.70;99.90;;;;;;4973790;28;20177;-73
2022/10/18 01:07:29;;;;;;;5.83;4.73;;;16.70;99.90;;;;;;4975274;28;20409;-73
2022/10/18 01:10:24;;;;;;;13.00;5.63;;;16.70;99.90;;;;;;4975346;28;20166;-72
2022/10/18 01:13:44;;;;;;;7.60;5.73;;;16.80;99.90;;;;;;4975191;28;20530;-72
2022/10/18 01:16:34;;;;;;;7.23;5.40;;;16.80;99.90;;;;;;5011915;28;20734;-72
2022/10/18 01:19:10;;;;;;;11.60;6.80;;;16.80;99.90;;;;;;4974779;28;20428;-72
2022/10/18 01:21:39;;;;;;;15.13;7.47;;;16.80;99.90;;;;;;4974963;28;20428;-73
2022/10/18 01:24:23;;;;;;;12.37;8.00;;;16.70;99.90;;;;;;4975337;28;20405;-73
2022/10/18 01:27:03;;;;;;;9.07;6.37;;;16.80;99.90;;;;;;4975864;28;20949;-73
2022/10/18 01:29:47;;;;;;;11.13;7.10;;;16.80;99.90;;;;;;5006572;28;20801;-73
2022/10/18 01:32:18;;;;;;;11.47;7.33;;;16.80;99.90;;;;;;4975212;28;20452;-73
2022/10/18 01:34:46;;;;;;;13.40;7.43;;;16.80;99.90;;;;;;4975948;28;20421;-73
2022/10/18 01:37:15;;;;;;;11.17;7.40;;;16.80;99.90;;;;;;5006174;28;20413;-73
2022/10/18 01:39:44;;;;;;;11.10;7.83;;;16.80;99.90;;;;;;5006088;28;20401;-73
2022/10/18 01:42:14;;;;;;;9.83;6.13;;;16.80;99.90;;;;;;4974592;28;20413;-73
2022/10/18 01:44:41;;;;;;;9.63;6.70;;;16.80;99.90;;;;;;4983893;28;20482;-73
2022/10/18 01:47:09;;;;;;;13.60;7.20;;;16.80;99.90;;;;;;4994000;28;20432;-72
2022/10/18 01:49:35;;;;;;;12.87;8.67;;;16.80;99.90;;;;;;4993840;28;20917;-71
2022/10/18 01:52:00;;;;;;;13.20;7.57;;;16.80;99.90;;;;;;4993874;28;20451;-72
2022/10/18 01:54:34;;;;;;;13.73;8.40;;;16.90;99.90;;;;;;4979573;28;20184;-72
2022/10/18 01:57:05;;;;;;;10.27;7.47;;;16.90;99.90;;;;;;4975514;28;20166;-72
2022/10/18 01:59:41;;;;;;;10.80;8.47;;;16.90;99.90;;;;;;4974685;28;20405;-73
2022/10/18 02:02:27;;;;;;;14.90;7.33;;;16.90;99.90;;;;;;4989267;28;20985;-72
2022/10/18 02:05:02;;;;;;;10.60;7.00;;;16.90;99.90;;;;;;4990715;28;20415;-72
2022/10/18 02:07:35;;;;;;;12.53;8.10;;;17.00;99.90;;;;;;4993578;28;20518;-74
2022/10/18 02:10:23;;;;;;;11.70;8.10;;;16.90;99.90;;;;;;4993821;28;20932;-73
2022/10/18 02:12:51;;;;;;;10.33;6.87;;;16.90;99.90;;;;;;4992535;28;20467;-73
2022/10/18 02:15:22;;;;;;;23.23;7.87;;;16.90;99.90;;;;;;4992974;28;20416;-73
2022/10/18 02:17:47;;;;;;;11.03;8.20;;;16.90;99.90;;;;;;4993672;28;20436;-73
2022/10/18 02:20:19;;;;;;;22.60;7.87;;;16.90;99.90;;;;;;4993052;28;20416;-73
2022/10/18 02:22:48;;;;;;;9.03;5.90;;;16.90;99.90;;;;;;4993980;28;20676;-73
2022/10/18 02:25:18;;;;;;;10.67;7.17;;;16.90;99.90;;;;;;4993493;28;20404;-73
2022/10/18 02:27:44;;;;;;;14.20;6.80;;;16.90;99.90;;;;;;4984376;28;20445;-72
2022/10/18 02:30:11;;;;;;;10.60;7.20;;;16.90;99.90;;;;;;4973805;28;20909;-72
2022/10/18 02:32:49;;;;;;;8.77;6.50;;;16.90;99.90;;;;;;4973912;28;20210;-72
2022/10/18 02:35:22;;;;;;;12.60;6.97;;;16.90;99.90;;;;;;4973190;28;20408;-72
2022/10/18 02:37:51;;;;;;;9.03;7.00;;;17.00;99.90;;;;;;4974222;28;20425;-72
2022/10/18 02:40:17;;;;;;;13.77;8.10;;;17.00;99.90;;;;;;4988569;28;20433;-71
2022/10/18 02:42:48;;;;;;;11.63;7.73;;;17.00;99.90;;;;;;4992879;28;20409;-71
2022/10/18 02:45:15;;;;;;;10.40;7.90;;;17.00;99.90;;;;;;4992806;28;20431;-72
2022/10/18 02:47:40;;;;;;;11.80;7.60;;;17.00;99.90;;;;;;4992854;28;20783;-71
2022/10/18 02:50:07;;;;;;;10.40;8.40;;;17.00;99.90;;;;;;4992840;28;20436;-72
2022/10/18 02:52:32;;;;;;;13.40;7.50;;;17.00;99.90;;;;;;4992427;28;20829;-71
2022/10/18 02:54:58;;;;;;;10.93;7.37;;;17.00;99.90;;;;;;4992917;28;20458;-72
2022/10/18 02:57:23;;;;;;;9.97;6.47;;;17.00;99.90;;;;;;4992558;28;20215;-72
2022/10/18 02:59:49;;;;;;;9.77;7.00;;;17.00;99.90;;;;;;4992989;28;20169;-71
2022/10/18 03:02:14;;;;;;;9.93;6.80;;;16.90;99.90;;;;;;4992276;28;20165;-72
2022/10/18 03:04:40;;;;;;;11.90;8.20;;;16.90;99.90;;;;;;4973075;28;20247;-72
2022/10/18 03:07:05;;;;;;;8.90;6.90;;;16.90;99.90;;;;;;4973470;28;20629;-72
2022/10/18 03:09:31;;;;;;;11.83;7.80;;;16.90;99.90;;;;;;4973498;28;20174;-72
2022/10/18 03:11:56;;;;;;;12.77;7.30;;;16.90;99.90;;;;;;4973631;28;20201;-72
2022/10/18 03:14:22;;;;;;;11.10;7.43;;;16.80;99.90;;;;;;4976145;28;21877;-72
2022/10/18 03:16:48;;;;;;;11.50;8.67;;;16.90;99.90;;;;;;4993192;28;20166;-73
2022/10/18 03:19:13;;;;;;;9.90;6.60;;;16.90;99.90;;;;;;4991395;28;20193;-71
2022/10/18 03:21:39;;;;;;;10.60;6.57;;;16.80;99.90;;;;;;4992294;28;20543;-74
2022/10/18 03:24:05;;;;;;;13.17;7.37;;;16.70;99.90;;;;;;4993321;28;20173;-72
2022/10/18 03:26:30;;;;;;;10.43;7.63;;;16.70;99.90;;;;;;4989777;28;20189;-73
2022/10/18 03:28:56;;;;;;;11.80;7.60;;;16.70;99.90;;;;;;4974303;28;20432;-72
2022/10/18 03:31:21;;;;;;;9.93;6.90;;;16.70;99.90;;;;;;4973035;28;20175;-72
2022/10/18 03:33:47;;;;;;;8.07;6.37;;;16.60;99.90;;;;;;4977913;28;20165;-73
2022/10/18 03:36:13;;;;;;;11.87;6.30;;;16.70;99.90;;;;;;4976105;28;20221;-71
2022/10/18 03:38:38;;;;;;;7.40;5.67;;;16.70;99.90;;;;;;4976118;28;20655;-71
2022/10/18 03:41:04;;;;;;;11.60;7.10;;;16.70;99.90;;;;;;4992355;28;20161;-70
2022/10/18 03:43:30;;;;;;;13.93;8.13;;;16.70;99.90;;;;;;4991018;28;20173;-72
2022/10/18 03:45:55;;;;;;;13.70;7.20;;;16.70;99.90;;;;;;4994011;28;20400;-71
2022/10/18 03:48:21;;;;;;;15.57;9.73;;;16.70;99.90;;;;;;4996015;28;20188;-71
2022/10/18 03:50:46;;;;;;;10.97;5.93;;;16.60;99.90;;;;;;4992470;28;20178;-72
2022/10/18 03:53:12;;;;;;;11.37;6.93;;;16.60;99.90;;;;;;4976497;28;20193;-72
2022/10/18 03:55:38;;;;;;;15.90;8.20;;;16.60;99.90;;;;;;4976352;28;20166;-72
2022/10/18 03:58:04;;;;;;;14.33;6.47;;;16.60;99.90;;;;;;4976540;28;20308;-72
2022/10/18 04:00:30;;;;;;;19.90;8.73;;;16.60;99.90;;;;;;4976768;28;20404;-72
2022/10/18 04:02:55;;;;;;;12.20;7.77;;;16.60;99.90;;;;;;4978459;28;20405;-72
2022/10/18 04:05:26;;;;;;;11.97;7.33;;;16.60;99.90;;;;;;4994285;28;20193;-72
2022/10/18 04:07:52;;;;;;;13.10;7.17;;;16.60;99.90;;;;;;4995966;28;20192;-72
2022/10/18 04:10:19;;;;;;;8.70;6.13;;;16.60;99.90;;;;;;4994569;28;20420;-72
2022/10/18 04:12:44;;;;;;;8.80;5.90;;;16.60;99.90;;;;;;4995754;28;20251;-72
2022/10/18 04:15:10;;;;;;;15.10;8.33;;;16.60;99.90;;;;;;4991895;28;20428;-72
2022/10/18 04:17:36;;;;;;;13.77;7.67;;;16.60;99.90;;;;;;5007628;28;20186;-72
2022/10/18 04:20:01;;;;;;;10.53;6.30;;;16.60;99.90;;;;;;4976192;28;20253;-72
2022/10/18 04:22:27;;;;;;;10.47;7.43;;;16.60;99.90;;;;;;4976260;28;20534;-72
2022/10/18 04:24:52;;;;;;;15.67;7.67;;;16.60;99.90;;;;;;4975796;28;20177;-72
2022/10/18 04:27:18;;;;;;;13.67;7.33;;;16.70;99.90;;;;;;4980436;28;20172;-72
2022/10/18 04:29:43;;;;;;;12.20;7.67;;;16.70;99.90;;;;;;4994275;28;20177;-71
2022/10/18 04:32:09;;;;;;;11.37;6.20;;;16.70;99.90;;;;;;4995331;28;20197;-72
2022/10/18 04:34:34;;;;;;;15.00;7.33;;;16.70;99.90;;;;;;4995135;28;20192;-72
2022/10/18 04:37:00;;;;;;;11.50;8.97;;;16.80;99.90;;;;;;4995364;28;20542;-72
2022/10/18 04:39:26;;;;;;;13.23;7.87;;;16.80;99.90;;;;;;4991300;28;20190;-71
2022/10/18 04:41:51;;;;;;;13.87;9.70;;;16.80;99.90;;;;;;4975786;28;20590;-72
2022/10/18 04:44:17;;;;;;;15.20;7.83;;;16.90;99.90;;;;;;4975517;28;20173;-72
2022/10/18 04:46:42;;;;;;;13.80;9.47;;;16.90;99.90;;;;;;4975898;28;20228;-72
2022/10/18 04:49:08;;;;;;;13.83;8.30;;;16.90;99.90;;;;;;4975619;28;20233;-72
2022/10/18 04:51:33;;;;;;;11.90;7.73;;;16.90;99.90;;;;;;4976072;28;20205;-72
2022/10/18 04:53:59;;;;;;;12.93;7.47;;;16.90;99.90;;;;;;4975758;28;20158;-72
2022/10/18 04:56:24;;;;;;;15.57;9.03;;;16.90;99.90;;;;;;4974857;28;20170;-72
2022/10/18 04:58:50;;;;;;;15.50;9.47;;;16.90;99.90;;;;;;4974971;28;20189;-72
2022/10/18 05:01:16;;;;;;;13.27;8.03;;;16.90;99.90;;;;;;4984988;28;20573;-72
2022/10/18 05:03:41;;;;;;;13.13;7.90;;;16.80;99.90;;;;;;4994989;28;20188;-72
2022/10/18 05:06:07;;;;;;;12.63;7.10;;;16.80;99.90;;;;;;4994505;28;20405;-72
2022/10/18 05:08:34;;;;;;;15.07;8.33;;;16.80;99.90;;;;;;4994652;28;20709;-72
2022/10/18 05:11:00;;;;;;;13.90;7.87;;;16.70;99.90;;;;;;4987326;28;20186;-72
2022/10/18 05:13:25;;;;;;;10.40;7.23;;;16.80;99.90;;;;;;4975253;28;20457;-72
2022/10/18 05:15:51;;;;;;;15.33;7.10;;;16.80;99.90;;;;;;4990001;28;20652;-72
2022/10/18 05:18:17;;;;;;;10.20;6.70;;;16.80;99.90;;;;;;4975226;28;20256;-72
2022/10/18 05:20:42;;;;;;;9.60;6.97;;;16.80;99.90;;;;;;4975328;28;20178;-72
2022/10/18 05:23:11;;;;;;;13.30;7.73;;;16.90;99.90;;;;;;4981846;28;20257;-72
2022/10/18 05:25:41;;;;;;;14.80;7.97;;;16.90;99.90;;;;;;4994208;28;20555;-71
2022/10/18 05:28:07;;;;;;;14.30;7.77;;;16.90;99.90;;;;;;4994561;28;20944;-72
2022/10/18 05:30:35;;;;;;;13.83;8.13;;;16.90;99.90;;;;;;4994369;28;20984;-71
2022/10/18 05:33:01;;;;;;;11.50;7.00;;;16.80;99.90;;;;;;4994178;28;20863;-71
2022/10/18 05:35:26;;;;;;;10.47;7.17;;;16.90;99.90;;;;;;4984795;28;20425;-71
2022/10/18 05:37:52;;;;;;;10.10;5.87;;;16.90;99.90;;;;;;4974728;28;20186;-72
2022/10/18 05:40:17;;;;;;;7.57;5.20;;;16.90;99.90;;;;;;4974790;28;20587;-71
2022/10/18 05:42:43;;;;;;;10.53;6.93;;;16.90;99.90;;;;;;4974809;28;20205;-72
2022/10/18 05:45:09;;;;;;;8.73;6.10;;;16.90;99.90;;;;;;4974362;28;20261;-71
2022/10/18 05:47:34;;;;;;;11.33;7.20;;;16.90;99.90;;;;;;4985171;28;20235;-72
2022/10/18 05:50:00;;;;;;;8.33;6.20;;;16.90;99.90;;;;;;4993912;28;20184;-73
2022/10/18 05:52:25;;;;;;;10.33;5.80;;;16.90;99.90;;;;;;4993923;28;20197;-71
2022/10/18 05:54:51;;;;;;;10.83;6.23;;;17.00;99.90;;;;;;4993324;28;20173;-72
2022/10/18 05:57:16;;;;;;;8.40;6.07;;;16.90;99.90;;;;;;4993878;28;20204;-72
2022/10/18 05:59:42;;;;;;;9.80;6.97;;;16.90;99.90;;;;;;4993825;28;20176;-71
2022/10/18 06:02:12;;;;;;;13.03;6.37;;;16.90;99.90;;;;;;4993764;28;20208;-71
2022/10/18 06:04:37;;;;;;;10.83;7.20;;;16.90;99.90;;;;;;4989152;28;20425;-71
2022/10/18 06:07:08;;;;;;;13.97;6.40;;;16.90;99.90;;;;;;4974102;28;20432;-70
2022/10/18 06:09:33;;;;;;;14.23;8.30;;;17.00;99.90;;;;;;4974016;28;20201;-71
2022/10/18 06:11:59;;;;;;;9.37;6.63;;;16.90;99.90;;;;;;5005285;28;21149;-71
2022/10/18 06:14:24;;;;;;;12.63;6.80;;;16.90;99.90;;;;;;4978053;28;20173;-70
2022/10/18 06:16:50;;;;;;;13.33;7.37;;;16.90;99.90;;;;;;4993177;28;20203;-71
2022/10/18 06:19:15;;;;;;;9.10;6.63;;;17.00;99.90;;;;;;4993334;28;20192;-71
2022/10/18 06:21:42;;;;;;;9.23;6.63;;;17.00;99.90;;;;;;4993368;28;20165;-71
2022/10/18 06:24:08;;;;;;;11.83;6.27;;;17.00;99.90;;;;;;4990888;28;20545;-71
2022/10/18 06:26:33;;;;;;;10.23;7.00;;;17.00;99.90;;;;;;4973646;28;20405;-71
2022/10/18 06:28:59;;;;;;;8.90;5.03;;;17.00;99.90;;;;;;4988768;28;20428;-71
2022/10/18 06:31:25;;;;;;;10.03;6.23;;;17.00;99.90;;;;;;4973735;28;20170;-71
2022/10/18 06:33:50;;;;;;;9.23;6.00;;;17.00;99.90;;;;;;4973724;28;20177;-71
2022/10/18 06:36:18;;;;;;;13.80;7.10;;;17.10;99.90;;;;;;4973772;28;20513;-71
2022/10/18 06:38:43;;;;;;;13.97;9.43;;;17.10;99.90;;;;;;4991641;28;20189;-72
2022/10/18 06:41:09;;;;;;;11.27;7.60;;;17.10;99.90;;;;;;4993048;28;20404;-71
2022/10/18 06:43:35;;;;;;;11.63;7.17;;;17.00;99.90;;;;;;4992790;28;20566;-71
2022/10/18 06:46:03;;;;;;;11.77;6.53;;;17.10;99.90;;;;;;4993049;28;20244;-71
2022/10/18 06:48:30;;;;;;;13.20;7.07;;;17.10;99.90;;;;;;4988211;28;20256;-72
2022/10/18 06:50:58;;;;;;;8.47;5.93;;;17.10;99.90;;;;;;4973570;28;20884;-72
2022/10/18 06:53:25;;;;;;;8.97;6.80;;;17.10;99.90;;;;;;4973450;28;20452;-72
2022/10/18 06:55:50;;;;;;;15.20;8.03;;;17.10;99.90;;;;;;4973228;28;20505;-72
2022/10/18 06:58:16;;;;;;;15.67;7.47;;;17.10;99.90;;;;;;4971673;28;20500;-72
2022/10/18 07:00:41;;;;;;;13.63;8.10;;;17.10;99.90;;;;;;4979896;28;20207;-72
2022/10/18 07:03:07;;;;;;;15.70;7.93;;;17.20;99.90;;;;;;4992703;28;20169;-72
2022/10/18 07:05:32;;;;;;;16.20;7.40;;;17.10;99.90;;;;;;4992472;28;20192;-71
2022/10/18 07:07:58;;;;;;;11.40;7.13;;;17.10;99.90;;;;;;4992606;28;20193;-71
2022/10/18 07:10:24;;;;;;;12.00;7.43;;;17.10;99.90;;;;;;4992398;28;20177;-72
2022/10/18 07:12:50;;;;;;;11.20;7.33;;;17.10;99.90;;;;;;4983111;28;20209;-72
2022/10/18 07:15:16;;;;;;;18.83;8.87;;;17.20;99.90;;;;;;4972994;28;20409;-72
2022/10/18 07:17:45;;;;;;;13.30;7.60;;;17.20;99.90;;;;;;4973189;28;20429;-73
2022/10/18 07:20:11;;;;;;;20.07;9.33;;;17.20;99.90;;;;;;4975445;28;20427;-73
2022/10/18 07:22:39;;;;;;;16.50;8.67;;;17.20;99.90;;;;;;4979594;28;20483;-73
2022/10/18 07:25:05;;;;;;;18.70;8.00;;;17.20;99.90;;;;;;4989049;28;20180;-73
2022/10/18 07:27:36;;;;;;;13.77;8.20;;;17.20;99.90;;;;;;4999137;28;20428;-73
2022/10/18 07:30:02;;;;;;;12.90;8.97;;;17.20;99.90;;;;;;4997768;28;20423;-72
2022/10/18 07:32:28;;;;;;;13.37;8.53;;;17.20;99.90;;;;;;4990400;28;20452;-72
2022/10/18 07:34:53;;;;;;;14.90;9.20;;;17.20;99.90;;;;;;4979296;28;20419;-73
2022/10/18 07:37:19;;;;;;;12.33;7.80;;;17.30;99.90;;;;;;4979689;28;20365;-73
2022/10/18 07:39:44;;;;;;;18.00;10.93;;;17.20;99.90;;;;;;4979740;28;20173;-73
2022/10/18 07:42:10;;;;;;;16.03;9.60;;;17.20;99.90;;;;;;4984991;28;20572;-72
2022/10/18 07:44:35;;;;;;;15.97;8.70;;;17.30;99.90;;;;;;4998776;28;20176;-73
2022/10/18 07:47:01;;;;;;;19.30;11.00;;;17.30;99.90;;;;;;4999071;28;20247;-72
2022/10/18 07:49:26;;;;;;;17.10;9.43;;;17.40;99.90;;;;;;4998828;28;20219;-72
2022/10/18 07:51:51;;;;;;;14.77;9.60;;;17.40;99.90;;;;;;4997440;28;20196;-73
2022/10/18 07:54:17;;;;;;;16.03;8.27;;;17.40;99.90;;;;;;4998723;28;20193;-72
2022/10/18 07:56:43;;;;;;;16.60;8.17;;;17.40;99.90;;;;;;4998897;28;20244;-73
2022/10/18 07:59:09;;;;;;;20.50;10.50;;;17.40;99.90;;;;;;4997562;28;20189;-72
2022/10/18 08:01:34;;;;;;;21.63;10.03;;;17.40;99.90;;;;;;4998337;28;20573;-72
2022/10/18 08:04:00;;;;;;;17.10;9.77;;;17.50;99.90;;;;;;4998766;28;20451;-72
2022/10/18 08:06:26;;;;;;;19.97;10.40;;;17.50;99.90;;;;;;4998668;28;20207;-72
2022/10/18 08:08:51;;;;;;;23.30;11.90;;;17.50;99.90;;;;;;4998727;28;20188;-72
2022/10/18 08:11:20;;;;;;;23.97;11.53;;;17.60;99.90;;;;;;4998775;28;20169;-72
2022/10/18 08:13:46;;;;;;;20.17;11.17;;;17.60;99.90;;;;;;5010165;28;20177;-72
2022/10/18 08:16:15;;;;;;;21.03;12.00;;;17.60;99.90;;;;;;4977656;28;20769;-72
2022/10/18 08:18:41;;;;;;;26.17;12.27;;;17.60;99.90;;;;;;4979095;28;20247;-73
2022/10/18 08:21:09;;;;;;;31.27;13.13;;;17.60;99.90;;;;;;4994056;28;20507;-73
2022/10/18 08:23:35;;;;;;;26.07;13.37;;;17.60;99.90;;;;;;4978944;28;20205;-73
2022/10/18 08:26:03;;;;;;;25.80;11.67;;;17.60;99.90;;;;;;4985251;28;20459;-72
2022/10/18 08:28:29;;;;;;;25.40;12.20;;;17.70;99.90;;;;;;4998368;28;20435;-72
2022/10/18 08:30:55;;;;;;;28.27;13.40;;;17.70;99.90;;;;;;4998280;28;20415;-72
2022/10/18 08:33:20;;;;;;;29.23;14.10;;;17.80;99.90;;;;;;4995296;28;20201;-72
2022/10/18 08:35:56;;;;;;;32.50;14.73;;;17.80;99.90;;;;;;4995065;28;20165;-72
2022/10/18 08:38:22;;;;;;;34.53;15.10;;;17.90;99.90;;;;;;4985626;28;20186;-72
2022/10/18 08:40:48;;;;;;;25.43;12.57;;;18.00;99.90;;;;;;4975835;28;20409;-72
2022/10/18 08:43:23;;;;;;;30.87;13.47;;;18.10;99.90;;;;;;4975817;28;20405;-73
2022/10/18 08:45:51;;;;;;;28.87;13.80;;;18.20;99.90;;;;;;4974523;28;20411;-73
2022/10/18 08:48:31;;;;;;;35.37;14.40;;;18.20;99.90;;;;;;4975534;28;20845;-73
2022/10/18 08:50:57;;;;;;;32.20;14.83;;;18.10;99.90;;;;;;4988317;28;20467;-73
2022/10/18 08:53:32;;;;;;;31.77;14.30;;;18.10;99.90;;;;;;4993759;28;20459;-72
2022/10/18 08:56:05;;;;;;;29.90;14.70;;;18.10;99.90;;;;;;4994796;28;20400;-72
2022/10/18 08:58:32;;;;;;;27.57;13.23;;;17.90;99.90;;;;;;4994915;28;20514;-71
2022/10/18 09:01:06;;;;;;;30.63;14.03;;;17.90;99.90;;;;;;4994950;28;20925;-72
2022/10/18 09:04:02;;;;;;;33.00;16.43;;;17.90;99.90;;;;;;4991306;28;20431;-72
2022/10/18 09:06:50;;;;;;;29.63;17.87;;;17.90;99.90;;;;;;4993286;28;20435;-71
2022/10/18 09:09:24;;;;;;;31.20;16.67;;;17.90;99.90;;;;;;4994753;28;20428;-72
2022/10/18 09:11:53;;;;;;;38.90;18.07;;;17.80;99.90;;;;;;4994698;28;20455;-72
2022/10/18 09:15:01;;;;;;;30.60;16.37;;;17.80;99.90;;;;;;4988792;28;20417;-72
2022/10/18 09:17:51;;;;;;;30.87;16.20;;;17.80;99.90;;;;;;4979798;28;20455;-72
2022/10/18 09:20:23;;;;;;;31.33;17.40;;;17.70;99.90;;;;;;4975198;28;20405;-73
2022/10/18 09:23:18;;;;;;;25.50;14.60;;;17.80;99.90;;;;;;4987528;28;20426;-73
2022/10/18 09:25:54;;;;;;;32.17;15.77;;;17.80;99.90;;;;;;4993061;28;20412;-72
2022/10/18 09:28:59;;;;;;;33.10;16.67;;;18.00;99.90;;;;;;4993075;28;20440;-74
2022/10/18 09:31:51;;;;;;;29.20;16.80;;;18.10;99.90;;;;;;4993376;28;20948;-72
2022/10/18 09:34:33;;;;;;;34.10;16.40;;;18.40;99.90;;;;;;4974503;28;20471;-73
2022/10/18 09:36:59;;;;;;;34.17;16.77;;;18.50;99.90;;;;;;4975039;28;20416;-73
2022/10/18 09:39:30;;;;;;;31.80;16.10;;;18.60;99.90;;;;;;4974590;28;20946;-73
2022/10/18 09:42:09;;;;;;;40.63;17.40;;;18.70;99.90;;;;;;4982088;28;21012;-72
2022/10/18 09:44:43;;;;;;;50.03;17.10;;;19.00;99.90;;;;;;4993388;28;20404;-72
2022/10/18 09:47:31;;;;;;;38.00;18.60;;;19.20;99.90;;;;;;4994005;28;20886;-73
2022/10/18 09:50:18;;;;;;;27.10;15.93;;;19.40;99.90;;;;;;4993922;28;20428;-73
2022/10/18 09:52:58;;;;;;;34.90;17.47;;;19.80;99.90;;;;;;4979956;28;20499;-73
2022/10/18 09:55:34;;;;;;;36.53;17.97;;;20.20;99.90;;;;;;4974475;28;20413;-73
2022/10/18 09:58:04;;;;;;;25.60;14.80;;;20.60;99.90;;;;;;4974364;28;20432;-73
2022/10/18 10:00:37;;;;;;;28.47;14.77;;;21.00;99.90;;;;;;4974416;28;20890;-73
2022/10/18 10:03:11;;;;;;;26.37;15.00;;;21.30;99.90;;;;;;4974364;28;20421;-73
2022/10/18 10:05:37;;;;;;;36.40;17.23;;;21.70;99.90;;;;;;5003590;28;20417;-73
2022/10/18 10:08:03;;;;;;;27.47;16.87;;;21.80;99.90;;;;;;4974235;28;20439;-73
2022/10/18 10:10:30;;;;;;;35.50;15.77;;;21.80;99.90;;;;;;4974399;28;20305;-73
2022/10/18 10:13:06;;;;;;;22.30;14.97;;;21.80;99.90;;;;;;4974187;28;20835;-73
2022/10/18 10:15:32;;;;;;;31.93;14.37;;;21.80;99.90;;;;;;4975870;28;20401;-74
2022/10/18 10:18:23;;;;;;;32.90;17.87;;;21.70;99.90;;;;;;4993084;28;20439;-73
2022/10/18 10:20:52;;;;;;;28.03;15.10;;;21.60;99.90;;;;;;4993392;28;20412;-73
2022/10/18 10:23:25;;;;;;;30.10;16.27;;;21.60;99.90;;;;;;4992138;28;20911;-72
2022/10/18 10:25:54;;;;;;;37.77;16.07;;;21.50;99.90;;;;;;4993063;28;20408;-72
2022/10/18 10:28:24;;;;;;;25.30;14.83;;;21.40;99.90;;;;;;4991767;28;20455;-73
2022/10/18 10:30:50;;;;;;;29.67;15.53;;;21.50;99.90;;;;;;4993275;28;20781;-72
2022/10/18 10:33:36;;;;;;;35.13;17.10;;;21.40;99.90;;;;;;4991892;28;20455;-72
2022/10/18 10:36:05;;;;;;;29.40;17.83;;;21.20;99.90;;;;;;4992978;28;20169;-72
2022/10/18 10:38:31;;;;;;;32.13;17.97;;;21.00;99.90;;;;;;4992982;28;20971;-73
2022/10/18 10:40:58;;;;;;;34.97;18.80;;;20.70;99.90;;;;;;4992602;28;20419;-73
2022/10/18 10:43:36;;;;;;;39.87;23.93;;;20.50;99.90;;;;;;4993170;28;20404;-73
2022/10/18 10:46:08;;;;;;;37.93;21.50;;;20.30;99.90;;;;;;4992700;28;20457;-72
2022/10/18 10:48:50;;;;;;;29.80;18.10;;;20.20;99.90;;;;;;4992649;28;20467;-73
2022/10/18 10:51:33;;;;;;;29.00;19.00;;;20.20;99.90;;;;;;4990671;28;20427;-72
2022/10/18 10:54:12;;;;;;;37.10;17.20;;;20.10;99.90;;;;;;4973436;28;20517;-72
2022/10/18 10:56:59;;;;;;;37.40;17.93;;;20.00;99.90;;;;;;4972816;28;20886;-72
2022/10/18 10:59:28;;;;;;;26.00;15.50;;;19.90;99.90;;;;;;4971320;28;20499;-72
2022/10/18 11:02:13;;;;;;;39.10;21.03;;;19.70;99.90;;;;;;4972889;28;20401;-72
2022/10/18 11:04:40;;;;;;;35.83;19.27;;;19.70;99.90;;;;;;4982573;28;20416;-72
2022/10/18 11:07:08;;;;;;;36.33;18.47;;;19.60;99.90;;;;;;4992788;28;20404;-72
2022/10/18 11:09:46;;;;;;;43.47;22.57;;;19.60;99.90;;;;;;4992386;28;20412;-73
2022/10/18 11:12:32;;;;;;;48.43;21.60;;;19.60;99.90;;;;;;4992241;28;20456;-72
2022/10/18 11:15:10;;;;;;;43.90;22.87;;;19.70;99.90;;;;;;4992203;28;20804;-74
2022/10/18 11:17:54;;;;;;;42.17;20.63;;;19.80;99.90;;;;;;4974739;28;20436;-73
2022/10/18 11:20:28;;;;;;;63.50;26.70;;;19.90;99.90;;;;;;4972783;28;20508;-72
2022/10/18 11:23:01;;;;;;;55.10;28.63;;;20.00;99.90;;;;;;5003915;28;20834;-73
2022/10/18 11:26:10;;;;;;;50.00;26.90;;;20.20;99.90;;;;;;5004024;28;20445;-73
2022/10/18 11:28:55;;;;;;;47.27;24.80;;;20.30;99.90;;;;;;4991047;28;20444;-73
2022/10/18 11:31:38;;;;;;;39.10;22.33;;;20.70;99.90;;;;;;4992228;28;20416;-72
2022/10/18 11:34:25;;;;;;;40.20;22.70;;;21.70;99.90;;;;;;4992017;28;20416;-72
2022/10/18 11:37:32;;;;;;;41.83;22.90;;;23.20;99.90;;;;;;4990840;28;20420;-73
2022/10/18 11:40:22;;;;;;;38.67;24.90;;;25.10;99.90;;;;;;4988919;28;20409;-72
2022/10/18 11:43:11;;;;;;;38.53;23.93;;;25.90;99.90;;;;;;4972725;28;20408;-74
2022/10/18 11:45:56;;;;;;;36.60;20.43;;;26.10;99.90;;;;;;4972496;28;20433;-73
2022/10/18 11:49:03;;;;;;;36.57;22.10;;;26.70;99.90;;;;;;4972460;28;20555;-72
2022/10/18 11:52:11;;;;;;;40.10;24.40;;;27.00;99.90;;;;;;5009352;28;20885;-73
2022/10/18 11:54:54;;;;;;;37.23;23.53;;;26.80;99.90;;;;;;5028657;28;20911;-72
2022/10/18 11:57:49;;;;;;;32.07;22.00;;;27.00;99.90;;;;;;4979823;28;20420;-73
2022/10/18 12:00:29;;;;;;;51.50;22.43;;;27.20;99.90;;;;;;4972363;28;20471;-72
2022/10/18 12:03:10;;;;;;;34.30;21.60;;;27.90;99.90;;;;;;4972472;28;20412;-73
2022/10/18 12:05:38;;;;;;;35.80;21.47;;;29.70;99.90;;;;;;5001333;28;20423;-73
2022/10/18 12:08:16;;;;;;;32.47;20.30;;;31.10;99.90;;;;;;4995416;28;20772;-72
2022/10/18 12:10:51;;;;;;;26.83;19.90;;;32.20;94.50;;;;;;4995616;28;20450;-73
2022/10/18 12:13:22;;;;;;;31.27;20.60;;;33.20;78.80;;;;;;4995624;28;20446;-70
2022/10/18 12:15:48;;;;;;;35.87;21.77;;;33.20;69.20;;;;;;4995193;28;20432;-70
2022/10/18 12:18:17;;;;;;;34.60;21.23;;;32.60;68.10;;;;;;4977703;28;20440;-70
2022/10/18 12:20:50;;;;;;;32.90;22.77;;;32.10;69.50;;;;;;4975986;28;20412;-70
2022/10/18 12:23:22;;;;;;;32.53;21.70;;;31.20;72.50;;;;;;4975880;28;20408;-72
2022/10/18 12:25:53;;;;;;;36.80;22.40;;;30.60;81.70;;;;;;4975587;28;20767;-73
2022/10/18 12:28:31;;;;;;;32.33;20.70;;;30.20;92.20;;;;;;4975723;28;20440;-72
2022/10/18 12:31:05;;;;;;;35.70;17.17;;;30.90;90.10;;;;;;4975760;28;20750;-73
2022/10/18 12:33:37;;;;;;;26.77;18.20;;;31.80;79.70;;;;;;4975740;28;20464;-73
2022/10/18 12:36:25;;;;;;;25.13;17.30;;;32.50;73.70;;;;;;4975441;28;20401;-73
2022/10/18 12:39:03;;;;;;;24.87;16.93;;;33.30;68.10;;;;;;4983099;28;20456;-72
2022/10/18 12:41:32;;;;;;;19.93;14.80;;;33.80;62.10;;;;;;4989607;28;20424;-71
2022/10/18 12:44:31;;;;;;;17.50;13.80;;;33.80;59.80;;;;;;4994839;28;20925;-71
2022/10/18 12:47:00;;;;;;;21.20;14.40;;;33.60;58.30;;;;;;4984483;28;20769;-72
2022/10/18 12:49:30;;;;;;;15.60;12.57;;;33.20;59.40;;;;;;4983867;28;20446;-71
2022/10/18 12:51:58;;;;;;;21.87;14.60;;;32.80;58.70;;;;;;4985652;28;20517;-72
2022/10/18 12:54:30;;;;;;;16.00;11.30;;;32.30;58.80;;;;;;4982355;28;20412;-71